createdAt,value
2023-09-29T00:01:26.993Z,4.05
2023-09-29T00:03:53.375Z,4.07
2023-09-29T00:06:19.786Z,4.15
2023-09-29T00:08:46.144Z,4.13
2023-09-29T00:11:12.474Z,4.20
2023-09-29T00:13:38.808Z,3.98
2023-09-29T00:16:05.134Z,4.08
2023-09-29T00:18:31.567Z,3.88
2023-09-29T00:20:57.982Z,3.86
2023-09-29T00:23:24.410Z,4.18
2023-09-29T00:25:50.733Z,3.77
2023-09-29T00:28:17.080Z,3.93
2023-09-29T00:30:43.400Z,4.06
2023-09-29T00:33:09.780Z,4.04
2023-09-29T00:35:36.241Z,3.85
2023-09-29T00:38:02.581Z,3.95
2023-09-29T00:40:28.928Z,3.63
2023-09-29T00:42:55.235Z,3.85
2023-09-29T00:45:21.622Z,3.72
2023-09-29T00:47:48.060Z,3.77
2023-09-29T00:50:14.446Z,3.71
2023-09-29T00:52:40.750Z,3.75
2023-09-29T00:55:07.066Z,3.53
2023-09-29T00:57:33.432Z,3.40
2023-09-29T00:59:59.791Z,3.58
2023-09-29T01:02:26.225Z,3.48
2023-09-29T01:04:52.599Z,3.36
2023-09-29T01:07:18.954Z,3.47
2023-09-29T01:09:45.262Z,3.50
2023-09-29T01:12:11.581Z,3.63
2023-09-29T01:14:37.924Z,3.45
2023-09-29T01:17:04.701Z,3.65
2023-09-29T01:19:31.698Z,3.38
2023-09-29T01:21:57.993Z,3.42
2023-09-29T01:24:24.330Z,3.57
2023-09-29T01:26:50.700Z,3.22
2023-09-29T01:29:17.091Z,3.47
2023-09-29T01:31:43.456Z,3.52
2023-09-29T01:34:09.817Z,3.19
2023-09-29T01:36:36.135Z,3.35
2023-09-29T01:39:02.483Z,3.38
2023-09-29T01:41:28.866Z,3.40
2023-09-29T01:43:55.222Z,3.44
2023-09-29T01:46:21.551Z,3.40
2023-09-29T01:48:47.994Z,3.12
2023-09-29T01:51:14.449Z,3.18
2023-09-29T01:53:40.803Z,3.16
2023-09-29T01:56:07.198Z,2.97
2023-09-29T01:58:33.511Z,3.23
2023-09-29T02:00:59.905Z,2.96
2023-09-29T02:03:26.366Z,3.14
2023-09-29T02:05:52.759Z,3.76
2023-09-29T02:08:19.149Z,3.03
2023-09-29T02:10:45.450Z,3.24
2023-09-29T02:13:11.770Z,3.16
2023-09-29T02:15:38.165Z,3.23
2023-09-29T02:18:04.618Z,3.24
2023-09-29T02:20:31.529Z,3.28
2023-09-29T02:22:57.991Z,3.12
2023-09-29T02:25:24.315Z,3.16
2023-09-29T02:27:50.636Z,2.98
2023-09-29T02:30:16.931Z,2.97
2023-09-29T02:32:43.704Z,3.11
2023-09-29T02:35:10.089Z,3.07
2023-09-29T02:37:36.386Z,3.33
2023-09-29T02:40:02.737Z,2.65
2023-09-29T02:42:29.076Z,3.06
2023-09-29T02:44:55.448Z,3.02
2023-09-29T02:47:21.777Z,2.89
2023-09-29T02:49:48.117Z,2.78
2023-09-29T02:52:14.459Z,2.92
2023-09-29T02:54:40.801Z,2.96
2023-09-29T02:57:07.216Z,2.80
2023-09-29T02:59:33.626Z,2.78
2023-09-29T03:01:59.935Z,2.86
2023-09-29T03:04:26.320Z,2.68
2023-09-29T03:06:52.636Z,2.67
2023-09-29T03:09:18.939Z,2.81
2023-09-29T03:11:45.267Z,2.56
2023-09-29T03:14:11.630Z,2.65
2023-09-29T03:16:38.036Z,2.53
2023-09-29T03:19:04.390Z,2.55
2023-09-29T03:21:30.718Z,2.64
2023-09-29T03:23:57.126Z,2.75
2023-09-29T03:26:23.451Z,2.55
2023-09-29T03:28:49.760Z,2.58
2023-09-29T03:31:16.100Z,2.65
2023-09-29T03:33:42.499Z,2.55
2023-09-29T03:36:08.841Z,2.43
2023-09-29T03:38:35.159Z,2.68
2023-09-29T03:41:01.489Z,2.59
2023-09-29T03:43:27.843Z,2.44
2023-09-29T03:45:54.173Z,2.47
2023-09-29T03:48:20.656Z,2.42
2023-09-29T03:50:47.033Z,2.38
2023-09-29T03:53:13.380Z,2.32
2023-09-29T03:55:39.783Z,2.53
2023-09-29T03:58:06.143Z,2.56
2023-09-29T04:00:32.452Z,2.48
2023-09-29T04:02:59.032Z,2.46
2023-09-29T04:05:25.487Z,2.53
2023-09-29T04:07:51.799Z,2.37
2023-09-29T04:10:18.117Z,2.37
2023-09-29T04:12:44.411Z,2.32
2023-09-29T04:15:10.780Z,2.52
2023-09-29T04:17:37.206Z,2.30
2023-09-29T04:20:03.542Z,2.38
2023-09-29T04:22:29.843Z,2.36
2023-09-29T04:24:56.150Z,2.61
2023-09-29T04:27:22.462Z,2.30
2023-09-29T04:29:48.853Z,2.24
2023-09-29T04:32:15.199Z,2.39
2023-09-29T04:34:41.501Z,2.39
2023-09-29T04:37:07.840Z,2.31
2023-09-29T04:39:34.205Z,2.19
2023-09-29T04:42:00.529Z,2.38
2023-09-29T04:44:26.867Z,2.24
2023-09-29T04:46:53.234Z,2.13
2023-09-29T04:49:19.565Z,2.53
2023-09-29T04:51:45.863Z,2.43
2023-09-29T04:54:12.162Z,2.36
2023-09-29T04:56:38.610Z,2.32
2023-09-29T04:59:04.934Z,2.49
2023-09-29T05:01:31.241Z,2.42
2023-09-29T05:03:57.713Z,2.22
2023-09-29T05:06:24.106Z,2.21
2023-09-29T05:08:50.510Z,2.48
2023-09-29T05:11:16.910Z,2.27
2023-09-29T05:13:43.239Z,2.40
2023-09-29T05:16:09.583Z,2.26
2023-09-29T05:18:35.954Z,2.43
2023-09-29T05:21:02.498Z,2.39
2023-09-29T05:23:28.898Z,2.47
2023-09-29T05:25:55.228Z,2.11
2023-09-29T05:28:21.542Z,2.45
2023-09-29T05:30:47.909Z,2.29
2023-09-29T05:33:14.474Z,2.31
2023-09-29T05:35:40.877Z,2.32
2023-09-29T05:38:07.204Z,2.41
2023-09-29T05:40:33.507Z,2.48
2023-09-29T05:42:59.890Z,2.53
2023-09-29T05:45:26.352Z,2.46
2023-09-29T05:47:52.772Z,2.38
2023-09-29T05:50:20.093Z,2.42
2023-09-29T05:52:59.591Z,2.63
2023-09-29T05:55:32.781Z,2.35
2023-09-29T05:57:59.103Z,2.43
2023-09-29T06:00:25.426Z,2.44
2023-09-29T06:02:51.892Z,2.45
2023-09-29T06:05:18.313Z,2.54
2023-09-29T06:07:44.607Z,2.41
2023-09-29T06:10:10.930Z,2.44
2023-09-29T06:12:37.237Z,2.56
2023-09-29T06:15:03.595Z,2.88
2023-09-29T06:17:29.966Z,2.60
2023-09-29T06:19:56.287Z,2.75
2023-09-29T06:22:22.603Z,2.50
2023-09-29T06:24:48.927Z,2.72
2023-09-29T06:27:15.386Z,2.71
2023-09-29T06:29:41.821Z,2.66
2023-09-29T06:32:08.176Z,2.73
2023-09-29T06:34:34.502Z,2.85
2023-09-29T06:37:00.819Z,2.99
2023-09-29T06:39:27.149Z,3.07
2023-09-29T06:41:53.474Z,3.06
2023-09-29T06:44:19.853Z,3.09
2023-09-29T06:46:46.223Z,2.82
2023-09-29T06:49:12.589Z,2.81
2023-09-29T06:51:38.945Z,3.15
2023-09-29T06:54:05.276Z,3.08
2023-09-29T06:56:32.620Z,3.14
2023-09-29T06:58:59.760Z,3.27
2023-09-29T07:01:26.263Z,3.23
2023-09-29T07:03:52.802Z,3.18
2023-09-29T07:06:19.282Z,3.46
2023-09-29T07:08:45.648Z,3.49
2023-09-29T07:11:12.010Z,3.39
2023-09-29T07:13:38.332Z,3.58
2023-09-29T07:16:04.636Z,3.52
2023-09-29T07:18:31.061Z,3.55
2023-09-29T07:20:57.446Z,3.43
2023-09-29T07:23:23.809Z,3.55
2023-09-29T07:25:50.154Z,3.45
2023-09-29T07:28:16.482Z,3.71
2023-09-29T07:30:42.857Z,3.82
2023-09-29T07:33:09.284Z,3.59
2023-09-29T07:35:35.783Z,3.38
2023-09-29T07:38:02.134Z,3.60
2023-09-29T07:40:28.464Z,3.76
2023-09-29T07:42:54.788Z,3.70
2023-09-29T07:45:21.111Z,4.00
2023-09-29T07:47:47.561Z,3.67
2023-09-29T07:50:13.926Z,3.63
2023-09-29T07:52:40.242Z,3.86
2023-09-29T07:55:06.562Z,3.27
2023-09-29T07:57:32.878Z,3.69
2023-09-29T07:59:59.237Z,3.54
2023-09-29T08:02:25.626Z,3.44
2023-09-29T08:04:51.929Z,3.49
2023-09-29T08:07:18.232Z,4.04
2023-09-29T08:09:44.554Z,3.65
2023-09-29T08:12:10.915Z,3.85
2023-09-29T08:14:37.276Z,3.39
2023-09-29T08:17:03.685Z,3.40
2023-09-29T08:19:30.012Z,3.46
2023-09-29T08:21:56.325Z,3.60
2023-09-29T08:24:22.664Z,3.35
2023-09-29T08:26:49.007Z,3.57
2023-09-29T08:29:15.378Z,3.48
2023-09-29T08:31:41.741Z,3.65
2023-09-29T08:34:08.242Z,3.49
2023-09-29T08:36:34.603Z,3.18
2023-09-29T08:39:00.940Z,3.35
2023-09-29T08:41:27.251Z,2.92
2023-09-29T08:44:06.335Z,3.23
2023-09-29T08:46:34.468Z,3.42
2023-09-29T08:49:00.907Z,3.11
2023-09-29T08:51:27.261Z,3.10
2023-09-29T08:53:53.612Z,2.99
2023-09-29T08:56:19.981Z,2.80
2023-09-29T08:58:46.330Z,3.40
2023-09-29T09:01:12.643Z,3.12
2023-09-29T09:03:39.057Z,2.90
2023-09-29T09:06:05.454Z,2.84
2023-09-29T09:08:31.755Z,2.89
2023-09-29T09:10:58.047Z,2.92
2023-09-29T09:13:24.417Z,2.95
2023-09-29T09:15:50.737Z,3.03
2023-09-29T09:18:17.230Z,2.68
2023-09-29T09:20:43.620Z,2.58
2023-09-29T09:23:09.989Z,2.57
2023-09-29T09:25:36.414Z,2.61
2023-09-29T09:28:02.915Z,2.52
2023-09-29T09:30:29.236Z,2.68
2023-09-29T09:32:55.686Z,2.60
2023-09-29T09:35:23.615Z,2.72
2023-09-29T09:37:49.916Z,2.41
2023-09-29T09:40:16.223Z,2.65
2023-09-29T09:42:42.537Z,2.37
2023-09-29T09:45:08.863Z,2.38
2023-09-29T09:47:35.204Z,2.36
2023-09-29T09:50:01.563Z,2.51
2023-09-29T09:52:27.867Z,2.59
2023-09-29T09:54:54.194Z,2.48
2023-09-29T09:57:20.547Z,2.50
2023-09-29T09:59:46.926Z,2.53
2023-09-29T10:02:13.289Z,2.69
2023-09-29T10:04:39.726Z,2.62
2023-09-29T10:07:06.182Z,2.37
2023-09-29T10:09:32.482Z,2.33
2023-09-29T10:12:00.323Z,2.12
2023-09-29T10:14:26.721Z,2.46
2023-09-29T10:16:53.039Z,2.40
2023-09-29T10:19:19.378Z,2.30
2023-09-29T10:21:45.698Z,2.43
2023-09-29T10:24:12.037Z,2.21
2023-09-29T10:26:38.515Z,2.26
2023-09-29T10:29:04.912Z,2.17
2023-09-29T10:31:31.278Z,2.33
2023-09-29T10:33:57.975Z,2.23
2023-09-29T10:36:24.628Z,2.12
2023-09-29T10:38:50.974Z,2.25
2023-09-29T10:41:33.433Z,2.44
2023-09-29T10:44:01.717Z,2.34
2023-09-29T10:46:28.117Z,2.26
2023-09-29T10:48:54.596Z,2.35
2023-09-29T10:51:21.004Z,2.35
2023-09-29T10:53:47.460Z,2.04
2023-09-29T10:56:13.772Z,2.46
2023-09-29T10:58:40.088Z,2.13
2023-09-29T11:01:06.706Z,2.23
2023-09-29T11:03:33.177Z,2.27
2023-09-29T11:05:59.762Z,2.13
2023-09-29T11:08:26.133Z,2.16
2023-09-29T11:10:52.444Z,2.38
2023-09-29T11:13:19.092Z,2.36
2023-09-29T11:15:45.560Z,2.32
2023-09-29T11:18:11.950Z,2.21
2023-09-29T11:20:38.365Z,2.46
2023-09-29T11:23:04.931Z,2.28
2023-09-29T11:25:31.573Z,2.37
2023-09-29T11:27:57.893Z,2.19
2023-09-29T11:30:24.227Z,2.12
2023-09-29T11:32:50.660Z,2.21
2023-09-29T11:35:17.023Z,2.19
2023-09-29T11:37:43.342Z,2.39
2023-09-29T11:40:09.638Z,2.38
2023-09-29T11:42:35.994Z,2.23
2023-09-29T11:45:02.391Z,2.23
2023-09-29T11:47:28.777Z,2.15
2023-09-29T11:49:55.063Z,2.29
2023-09-29T11:52:21.376Z,2.19
2023-09-29T11:54:47.694Z,2.08
2023-09-29T11:57:14.075Z,2.05
2023-09-29T11:59:40.416Z,1.93
2023-09-29T12:02:06.782Z,2.13
2023-09-29T12:04:33.195Z,2.31
2023-09-29T12:06:59.541Z,1.98
2023-09-29T12:09:25.932Z,1.87
2023-09-29T12:11:52.373Z,2.31
2023-09-29T12:14:18.710Z,2.05
2023-09-29T12:16:45.179Z,2.14
2023-09-29T12:19:11.601Z,2.43
2023-09-29T12:21:37.910Z,2.09
2023-09-29T12:24:04.276Z,2.09
2023-09-29T12:26:30.661Z,2.12
2023-09-29T12:28:56.990Z,2.23
2023-09-29T12:31:23.317Z,2.17
2023-09-29T12:33:49.652Z,2.08
2023-09-29T12:36:16.064Z,2.31
2023-09-29T12:38:42.464Z,2.09
2023-09-29T12:41:08.813Z,2.25
2023-09-29T12:43:35.140Z,2.24
2023-09-29T12:46:01.533Z,2.13
2023-09-29T12:48:28.021Z,2.04
2023-09-29T12:50:54.436Z,2.04
2023-09-29T12:53:20.771Z,2.15
2023-09-29T12:55:47.081Z,2.19
2023-09-29T12:58:13.396Z,2.23
2023-09-29T13:00:39.737Z,2.29
2023-09-29T13:03:06.528Z,2.19
2023-09-29T13:05:33.451Z,2.18
2023-09-29T13:07:59.752Z,2.28
2023-09-29T13:10:26.101Z,2.17
2023-09-29T13:12:52.500Z,2.20
2023-09-29T13:15:18.926Z,2.14
2023-09-29T13:17:45.375Z,2.53
2023-09-29T13:20:11.675Z,2.30
2023-09-29T13:22:37.983Z,2.02
2023-09-29T13:25:04.279Z,2.34
2023-09-29T13:27:30.564Z,2.29
2023-09-29T13:29:56.935Z,2.28
2023-09-29T13:32:23.253Z,2.29
2023-09-29T13:34:49.567Z,2.21
2023-09-29T13:37:15.919Z,2.27
2023-09-29T13:39:42.268Z,2.46
2023-09-29T13:42:08.637Z,2.37
2023-09-29T13:44:34.955Z,2.44
2023-09-29T13:47:04.331Z,2.41
2023-09-29T13:49:30.969Z,2.18
2023-09-29T13:51:57.288Z,2.36
2023-09-29T13:54:23.676Z,2.20
2023-09-29T13:56:50.131Z,2.41
2023-09-29T13:59:16.473Z,2.25
2023-09-29T14:01:42.854Z,2.23
2023-09-29T14:04:09.508Z,2.30
2023-09-29T14:06:36.053Z,2.36
2023-09-29T14:09:15.404Z,2.36
2023-09-29T14:11:43.595Z,2.18
2023-09-29T14:14:09.924Z,2.22
2023-09-29T14:16:36.283Z,2.35
2023-09-29T14:19:02.627Z,2.26
2023-09-29T14:21:28.954Z,2.64
2023-09-29T14:23:55.674Z,2.42
2023-09-29T14:26:22.323Z,2.38
2023-09-29T14:28:48.621Z,2.33
2023-09-29T14:31:15.173Z,2.23
2023-09-29T14:33:42.678Z,2.44
2023-09-29T14:36:09.066Z,2.37
2023-09-29T14:38:35.420Z,2.46
2023-09-29T14:41:01.742Z,2.34
2023-09-29T14:43:28.046Z,2.56
2023-09-29T14:45:54.447Z,2.41
2023-09-29T14:48:20.899Z,2.57
2023-09-29T14:50:47.327Z,2.24
2023-09-29T14:53:13.701Z,2.37
2023-09-29T14:55:40.040Z,2.57
2023-09-29T14:58:06.382Z,2.89
2023-09-29T15:00:32.777Z,2.49
2023-09-29T15:02:59.214Z,2.61
2023-09-29T15:05:25.613Z,2.55
2023-09-29T15:07:51.940Z,2.60
2023-09-29T15:10:18.255Z,2.81
2023-09-29T15:12:44.603Z,2.61
2023-09-29T15:15:10.969Z,2.77
2023-09-29T15:17:37.327Z,2.60
2023-09-29T15:20:03.669Z,2.38
2023-09-29T15:22:29.968Z,2.54
2023-09-29T15:24:56.281Z,2.69
2023-09-29T15:27:22.626Z,2.81
2023-09-29T15:29:49.102Z,2.85
2023-09-29T15:32:15.492Z,2.59
2023-09-29T15:34:41.798Z,2.65
2023-09-29T15:37:08.119Z,3.07
2023-09-29T15:39:34.447Z,2.85
2023-09-29T15:42:00.837Z,2.76
2023-09-29T15:44:27.144Z,2.91
2023-09-29T15:46:53.443Z,2.79
2023-09-29T15:49:19.783Z,2.90
2023-09-29T15:51:46.092Z,3.13
2023-09-29T15:54:12.427Z,3.08
2023-09-29T15:56:38.795Z,2.97
2023-09-29T15:59:05.097Z,2.95
2023-09-29T16:01:31.460Z,2.78
2023-09-29T16:03:58.170Z,2.92
2023-09-29T16:06:24.916Z,3.03
2023-09-29T16:08:51.304Z,3.01
2023-09-29T16:11:17.658Z,3.16
2023-09-29T16:13:43.946Z,2.83
2023-09-29T16:16:10.270Z,3.15
2023-09-29T16:18:36.713Z,3.10
2023-09-29T16:21:03.186Z,3.08
2023-09-29T16:23:29.519Z,2.95
2023-09-29T16:25:55.867Z,3.31
2023-09-29T16:28:22.190Z,3.31
2023-09-29T16:30:48.501Z,3.17
2023-09-29T16:33:14.855Z,3.10
2023-09-29T16:35:41.218Z,3.24
2023-09-29T16:38:07.546Z,3.27
2023-09-29T16:40:33.885Z,3.15
2023-09-29T16:43:00.195Z,3.66
2023-09-29T16:45:26.557Z,3.52
2023-09-29T16:47:52.949Z,3.54
2023-09-29T16:50:19.295Z,3.34
2023-09-29T16:52:45.632Z,3.67
2023-09-29T16:55:11.974Z,3.58
2023-09-29T16:57:38.297Z,3.41
2023-09-29T17:00:04.703Z,3.44
2023-09-29T17:02:31.110Z,3.79
2023-09-29T17:04:57.463Z,3.74
2023-09-29T17:07:23.854Z,3.73
2023-09-29T17:09:50.163Z,3.68
2023-09-29T17:12:16.521Z,3.60
2023-09-29T17:14:42.855Z,3.64
2023-09-29T17:17:09.163Z,3.71
2023-09-29T17:19:35.475Z,3.91
2023-09-29T17:22:01.784Z,3.63
2023-09-29T17:24:28.141Z,3.86
2023-09-29T17:26:54.486Z,3.92
2023-09-29T17:29:20.805Z,3.66
2023-09-29T17:31:47.142Z,3.91
2023-09-29T17:34:13.512Z,4.12
2023-09-29T17:36:39.818Z,4.07
2023-09-29T17:39:06.166Z,3.85
2023-09-29T17:41:32.533Z,3.93
2023-09-29T17:43:59.034Z,3.91
2023-09-29T17:46:25.480Z,3.93
2023-09-29T17:48:51.853Z,4.18
2023-09-29T17:51:18.183Z,4.09
2023-09-29T17:53:44.524Z,3.64
2023-09-29T17:56:10.927Z,4.01
2023-09-29T17:58:37.261Z,4.31
2023-09-29T18:01:03.614Z,4.12
2023-09-29T18:03:30.015Z,3.71
2023-09-29T18:05:56.438Z,3.99
2023-09-29T18:08:22.781Z,4.06
2023-09-29T18:10:51.003Z,3.82
2023-09-29T18:13:18.617Z,3.98
2023-09-29T18:15:44.925Z,3.77
2023-09-29T18:18:11.327Z,3.78
2023-09-29T18:20:37.740Z,3.72
2023-09-29T18:23:04.655Z,3.89
2023-09-29T18:25:31.042Z,3.92
2023-09-29T18:27:57.355Z,3.65
2023-09-29T18:30:23.739Z,3.70
2023-09-29T18:32:50.169Z,3.97
2023-09-29T18:35:16.512Z,3.85
2023-09-29T18:37:42.821Z,3.97
2023-09-29T18:40:09.124Z,3.88
2023-09-29T18:42:35.519Z,3.94
2023-09-29T18:45:01.876Z,3.59
2023-09-29T18:47:28.312Z,4.05
2023-09-29T18:49:54.662Z,4.00
2023-09-29T18:52:20.970Z,4.21
2023-09-29T18:54:47.285Z,3.65
2023-09-29T18:57:13.672Z,4.01
2023-09-29T18:59:40.045Z,3.94
2023-09-29T19:02:06.466Z,3.78
2023-09-29T19:04:32.841Z,3.86
2023-09-29T19:06:59.184Z,3.94
2023-09-29T19:09:25.626Z,4.10
2023-09-29T19:11:52.001Z,3.77
2023-09-29T19:14:18.301Z,3.98
2023-09-29T19:16:44.702Z,3.86
2023-09-29T19:19:11.043Z,3.81
2023-09-29T19:21:37.406Z,3.70
2023-09-29T19:24:03.818Z,4.10
2023-09-29T19:26:30.209Z,4.09
2023-09-29T19:28:56.861Z,4.09
2023-09-29T19:31:23.344Z,4.14
2023-09-29T19:33:49.719Z,3.98
2023-09-29T19:36:16.088Z,3.78
2023-09-29T19:38:42.422Z,3.99
2023-09-29T19:41:08.740Z,4.12
2023-09-29T19:43:35.042Z,4.05
2023-09-29T19:46:01.481Z,4.05
2023-09-29T19:48:27.886Z,4.04
2023-09-29T19:50:54.248Z,4.17
2023-09-29T19:53:20.550Z,4.21
2023-09-29T19:55:46.879Z,4.19
2023-09-29T19:58:13.182Z,4.22
2023-09-29T20:00:39.560Z,4.08
2023-09-29T20:03:06.036Z,4.23
2023-09-29T20:05:32.451Z,4.39
2023-09-29T20:07:58.803Z,4.35
2023-09-29T20:10:25.121Z,4.22
2023-09-29T20:12:51.425Z,4.22
2023-09-29T20:15:17.771Z,4.53
2023-09-29T20:17:44.273Z,4.50
2023-09-29T20:20:10.655Z,4.55
2023-09-29T20:22:37.010Z,4.49
2023-09-29T20:25:03.341Z,4.39
2023-09-29T20:27:29.681Z,4.26
2023-09-29T20:29:56.028Z,4.57
2023-09-29T20:32:22.378Z,4.31
2023-09-29T20:34:48.675Z,4.55
2023-09-29T20:37:14.957Z,4.53
2023-09-29T20:39:41.268Z,4.74
2023-09-29T20:42:07.971Z,4.51
2023-09-29T20:44:34.435Z,4.36
2023-09-29T20:47:00.796Z,4.34
2023-09-29T20:49:27.100Z,4.24
2023-09-29T20:51:53.396Z,4.27
2023-09-29T20:54:19.787Z,4.86
2023-09-29T20:56:46.143Z,4.67
2023-09-29T20:59:12.436Z,4.46
2023-09-29T21:01:38.818Z,4.50
2023-09-29T21:04:05.301Z,4.78
2023-09-29T21:06:31.712Z,4.17
2023-09-29T21:08:58.082Z,4.57
2023-09-29T21:11:24.422Z,4.46
2023-09-29T21:13:50.746Z,4.56
2023-09-29T21:16:17.100Z,4.74
2023-09-29T21:18:43.521Z,4.35
2023-09-29T21:21:09.879Z,4.29
2023-09-29T21:23:36.213Z,4.25
2023-09-29T21:26:02.551Z,4.27
2023-09-29T21:28:28.922Z,4.59
2023-09-29T21:30:55.245Z,4.35
2023-09-29T21:33:21.616Z,4.50
2023-09-29T21:35:48.021Z,4.17
2023-09-29T21:38:14.319Z,4.52
2023-09-29T21:40:40.652Z,4.57
2023-09-29T21:43:07.009Z,4.25
2023-09-29T21:45:33.393Z,4.18
2023-09-29T21:47:59.811Z,4.30
2023-09-29T21:50:26.169Z,4.02
2023-09-29T21:52:52.632Z,4.36
2023-09-29T21:55:18.937Z,3.82
2023-09-29T21:57:45.288Z,3.94
2023-09-29T22:00:11.703Z,3.97
2023-09-29T22:02:38.102Z,4.59
2023-09-29T22:05:04.503Z,4.19
2023-09-29T22:07:30.875Z,4.19
2023-09-29T22:09:57.208Z,4.29
2023-09-29T22:12:23.539Z,3.97
2023-09-29T22:14:49.920Z,3.98
2023-09-29T22:17:16.242Z,3.77
2023-09-29T22:19:42.552Z,4.06
2023-09-29T22:22:08.904Z,4.03
2023-09-29T22:24:35.232Z,3.96
2023-09-29T22:27:01.600Z,3.87
2023-09-29T22:29:27.906Z,3.81
2023-09-29T22:31:54.196Z,4.00
2023-09-29T22:34:20.572Z,4.04
2023-09-29T22:36:46.897Z,3.94
2023-09-29T22:39:13.242Z,3.96
2023-09-29T22:41:39.640Z,4.07
2023-09-29T22:44:05.957Z,4.09
2023-09-29T22:46:32.306Z,4.04
2023-09-29T22:48:58.667Z,3.92
2023-09-29T22:51:25.067Z,4.00
2023-09-29T22:53:51.484Z,3.86
2023-09-29T22:56:17.813Z,3.67
2023-09-29T22:58:44.142Z,3.92
2023-09-29T23:01:10.586Z,4.04
2023-09-29T23:03:37.151Z,3.89
2023-09-29T23:06:03.928Z,3.83
2023-09-29T23:08:30.338Z,4.14
2023-09-29T23:10:56.688Z,4.02
2023-09-29T23:13:22.983Z,3.86
2023-09-29T23:15:49.308Z,3.48
2023-09-29T23:18:15.693Z,3.81
2023-09-29T23:20:42.024Z,3.85
2023-09-29T23:23:08.368Z,3.91
2023-09-29T23:25:34.688Z,3.74
2023-09-29T23:28:01.016Z,4.21
2023-09-29T23:30:27.626Z,3.94
2023-09-29T23:32:53.943Z,3.98
2023-09-29T23:35:20.288Z,3.69
2023-09-29T23:37:46.587Z,3.55
2023-09-29T23:40:13.004Z,3.98
2023-09-29T23:42:39.500Z,3.85
2023-09-29T23:45:05.934Z,3.95
2023-09-29T23:47:32.336Z,3.63
2023-09-29T23:49:58.705Z,3.72
2023-09-29T23:52:25.133Z,3.70
2023-09-29T23:54:51.468Z,3.98
2023-09-29T23:57:17.816Z,3.59
2023-09-29T23:59:44.183Z,3.99
